Time;durP1;ratioP1;P1;durP2;ratioP2;P2;SDS_P1;SDS_P2;PMS_P1;PMS_P2;Temp;Humidity;BMP_temperature;BMP_pressure;BME280_temperature;BME280_humidity;BME280_pressure;Samples;Min_cycle;Max_cycle;Signal;HPM_P1;HPM_P2
2023/04/21 00:00:56;;;;;;;57.27;36.20;;;;;;;;;;5058711;28;20029;-79
2023/04/21 00:03:25;;;;;;;56.37;36.60;;;;;;;;;;5074033;28;20033;-79
2023/04/21 00:06:01;;;;;;;52.90;36.67;;;;;;;;;;5073004;28;20021;-78
2023/04/21 00:08:27;;;;;;;54.57;36.20;;;;;;;;;;5073104;28;20027;-78
2023/04/21 00:10:53;;;;;;;62.13;38.20;;;;;;;;;;5055305;28;20020;-78
2023/04/21 00:13:19;;;;;;;69.60;39.63;;;;;;;;;;5053660;28;20088;-79
2023/04/21 00:15:48;;;;;;;67.40;39.63;;;;;;;;;;5072231;28;20054;-78
2023/04/21 00:18:14;;;;;;;60.40;38.20;;;;;;;;;;5090784;23;20036;-78
2023/04/21 00:20:41;;;;;;;65.20;39.73;;;;;;;;;;5058607;28;20033;-78
2023/04/21 00:23:10;;;;;;;64.43;39.37;;;;;;;;;;5046609;28;20081;-78
2023/04/21 00:25:38;;;;;;;68.00;40.40;;;;;;;;;;5053999;28;20021;-78
2023/04/21 00:28:11;;;;;;;66.43;38.80;;;;;;;;;;5044292;28;20037;-78
2023/04/21 00:30:37;;;;;;;65.57;39.90;;;;;;;;;;5057043;28;20076;-78
2023/04/21 00:33:03;;;;;;;67.93;40.37;;;;;;;;;;5062750;28;20103;-78
2023/04/21 00:35:29;;;;;;;70.60;40.10;;;;;;;;;;5043835;28;20014;-78
2023/04/21 00:37:56;;;;;;;72.23;40.43;;;;;;;;;;5047132;28;20025;-79
2023/04/21 00:40:27;;;;;;;74.33;42.23;;;;;;;;;;5055643;28;20048;-78
2023/04/21 00:42:58;;;;;;;65.20;40.30;;;;;;;;;;5052875;28;20034;-79
2023/04/21 00:45:24;;;;;;;66.60;40.97;;;;;;;;;;5047485;28;20024;-77
2023/04/21 00:47:52;;;;;;;63.73;39.87;;;;;;;;;;5048251;28;20017;-78
2023/04/21 00:50:18;;;;;;;69.93;42.60;;;;;;;;;;5063426;28;20036;-78
2023/04/21 00:52:45;;;;;;;77.97;41.20;;;;;;;;;;5054976;28;20021;-79
2023/04/21 00:55:12;;;;;;;73.73;41.13;;;;;;;;;;5074221;23;20041;-77
2023/04/21 00:57:43;;;;;;;80.70;44.43;;;;;;;;;;5048557;28;20029;-77
2023/04/21 01:00:12;;;;;;;77.43;42.00;;;;;;;;;;5060732;28;20025;-77
2023/04/21 01:02:39;;;;;;;79.53;43.07;;;;;;;;;;5062145;28;20028;-79
2023/04/21 01:05:10;;;;;;;71.33;42.87;;;;;;;;;;5059777;28;20041;-80
2023/04/21 01:07:37;;;;;;;68.90;41.35;;;;;;;;;;5062914;28;20027;-77
2023/04/21 01:10:06;;;;;;;76.43;42.00;;;;;;;;;;5060965;28;20032;-77
2023/04/21 01:12:32;;;;;;;75.73;42.83;;;;;;;;;;5063393;28;20061;-79
2023/04/21 01:14:58;;;;;;;74.27;41.67;;;;;;;;;;5043221;28;20028;-77
2023/04/21 01:17:24;;;;;;;69.23;41.30;;;;;;;;;;5046029;28;20060;-78
2023/04/21 01:19:55;;;;;;;62.60;40.50;;;;;;;;;;5055737;28;20029;-79
2023/04/21 01:22:21;;;;;;;62.30;39.23;;;;;;;;;;5043212;28;20083;-80
2023/04/21 01:24:48;;;;;;;66.23;38.03;;;;;;;;;;5060450;28;20351;-80
2023/04/21 01:27:17;;;;;;;57.33;37.40;;;;;;;;;;5061088;28;20473;-79
2023/04/21 01:29:45;;;;;;;56.77;38.70;;;;;;;;;;5058494;28;20029;-79
2023/04/21 01:32:13;;;;;;;53.87;36.67;;;;;;;;;;5045236;28;20025;-79
2023/04/21 01:34:42;;;;;;;55.60;36.90;;;;;;;;;;5059898;28;20045;-78
2023/04/21 01:37:08;;;;;;;57.60;36.90;;;;;;;;;;5059003;28;20043;-80
2023/04/21 01:39:37;;;;;;;54.67;36.50;;;;;;;;;;5059254;28;20048;-77
2023/04/21 01:42:03;;;;;;;66.40;39.00;;;;;;;;;;5060458;28;20033;-78
2023/04/21 01:44:31;;;;;;;64.87;40.70;;;;;;;;;;5044368;28;20076;-79
2023/04/21 01:46:57;;;;;;;65.37;38.80;;;;;;;;;;5063438;28;20029;-78
2023/04/21 01:49:24;;;;;;;69.20;40.43;;;;;;;;;;5062227;28;20031;-77
2023/04/21 01:51:50;;;;;;;69.90;41.57;;;;;;;;;;5044282;28;20085;-76
2023/04/21 01:54:18;;;;;;;79.53;42.93;;;;;;;;;;5060230;28;20051;-77
2023/04/21 01:56:47;;;;;;;78.80;43.53;;;;;;;;;;5060423;28;20018;-79
2023/04/21 01:59:13;;;;;;;77.20;42.50;;;;;;;;;;5061502;28;20037;-78
2023/04/21 02:01:39;;;;;;;83.50;43.43;;;;;;;;;;5062460;28;20025;-77
2023/04/21 02:04:07;;;;;;;84.07;43.37;;;;;;;;;;5061620;28;20026;-78
2023/04/21 02:06:33;;;;;;;86.27;42.70;;;;;;;;;;5045935;28;20085;-78
2023/04/21 02:08:59;;;;;;;80.83;41.87;;;;;;;;;;5047575;28;20028;-77
2023/04/21 02:11:25;;;;;;;63.73;40.00;;;;;;;;;;5046105;28;20041;-79
2023/04/21 02:13:52;;;;;;;81.20;41.27;;;;;;;;;;5065196;28;20021;-77
2023/04/21 02:16:19;;;;;;;69.87;41.10;;;;;;;;;;5047751;28;20024;-77
2023/04/21 02:18:46;;;;;;;68.93;40.53;;;;;;;;;;5046221;28;20014;-77
2023/04/21 02:21:12;;;;;;;69.47;41.43;;;;;;;;;;5064281;28;20033;-78
2023/04/21 02:23:38;;;;;;;85.07;44.00;;;;;;;;;;5051593;28;20088;-76
2023/04/21 02:26:04;;;;;;;90.53;41.93;;;;;;;;;;5046170;28;20089;-76
2023/04/21 02:28:30;;;;;;;88.23;41.97;;;;;;;;;;5044878;28;20029;-77
2023/04/21 02:30:56;;;;;;;79.90;39.70;;;;;;;;;;5061588;28;20044;-77
2023/04/21 02:33:22;;;;;;;84.70;39.53;;;;;;;;;;5053661;28;20043;-78
2023/04/21 02:35:54;;;;;;;76.00;38.70;;;;;;;;;;5059612;28;20041;-77
2023/04/21 02:38:20;;;;;;;71.63;37.63;;;;;;;;;;5043987;28;20043;-78
2023/04/21 02:40:46;;;;;;;60.37;34.67;;;;;;;;;;5043816;28;20017;-78
2023/04/21 02:43:15;;;;;;;65.53;36.27;;;;;;;;;;5059735;28;20065;-77
2023/04/21 02:45:44;;;;;;;62.10;36.57;;;;;;;;;;5060068;28;20025;-77
2023/04/21 02:48:10;;;;;;;72.33;37.37;;;;;;;;;;5060164;28;20021;-77
2023/04/21 02:50:37;;;;;;;75.07;38.30;;;;;;;;;;5060164;28;20026;-77
2023/04/21 02:53:03;;;;;;;73.43;37.53;;;;;;;;;;5059846;28;20014;-76
2023/04/21 02:55:29;;;;;;;73.07;38.50;;;;;;;;;;5051112;28;20021;-77
2023/04/21 02:57:58;;;;;;;96.43;42.80;;;;;;;;;;5060350;28;20033;-76
2023/04/21 03:00:27;;;;;;;102.67;41.73;;;;;;;;;;5043894;28;20025;-77
2023/04/21 03:02:53;;;;;;;85.83;40.37;;;;;;;;;;5058762;28;20010;-76
2023/04/21 03:05:20;;;;;;;109.97;41.93;;;;;;;;;;5059281;28;20064;-77
2023/04/21 03:07:46;;;;;;;120.23;43.83;;;;;;;;;;5060262;28;20039;-77
2023/04/21 03:10:12;;;;;;;145.80;43.83;;;;;;;;;;5059835;28;20027;-78
2023/04/21 03:12:38;;;;;;;117.67;44.67;;;;;;;;;;5042992;28;20017;-76
2023/04/21 03:15:04;;;;;;;144.77;45.10;;;;;;;;;;5050458;28;20052;-77
2023/04/21 03:17:30;;;;;;;182.93;45.63;;;;;;;;;;5041532;28;20025;-77
2023/04/21 03:19:59;;;;;;;126.83;43.50;;;;;;;;;;5054870;28;20037;-78
2023/04/21 03:22:25;;;;;;;108.77;42.47;;;;;;;;;;5050424;28;20022;-78
2023/04/21 03:24:51;;;;;;;125.47;42.90;;;;;;;;;;5045925;28;20056;-77
2023/04/21 03:27:20;;;;;;;109.90;44.37;;;;;;;;;;5040890;28;20037;-76
2023/04/21 03:29:49;;;;;;;103.87;41.97;;;;;;;;;;5059878;28;20043;-77
2023/04/21 03:32:17;;;;;;;113.83;42.13;;;;;;;;;;5060558;28;20080;-77
2023/04/21 03:34:43;;;;;;;154.17;45.23;;;;;;;;;;5053800;28;20101;-77
2023/04/21 03:37:12;;;;;;;96.10;43.00;;;;;;;;;;5059314;28;20025;-77
2023/04/21 03:39:44;;;;;;;117.93;42.17;;;;;;;;;;5060131;28;20123;-78
2023/04/21 03:42:12;;;;;;;103.18;40.95;;;;;;;;;;5044920;28;20043;-77
2023/04/21 03:44:39;;;;;;;135.03;43.93;;;;;;;;;;5050998;28;20025;-76
2023/04/21 03:47:05;;;;;;;125.10;42.73;;;;;;;;;;5058199;28;20024;-78
2023/04/21 03:49:33;;;;;;;141.03;45.47;;;;;;;;;;5058135;28;20059;-78
2023/04/21 03:52:04;;;;;;;129.63;43.70;;;;;;;;;;5059482;28;20036;-77
2023/04/21 03:54:36;;;;;;;133.57;44.10;;;;;;;;;;5044710;28;20017;-77
2023/04/21 03:57:07;;;;;;;167.93;46.78;;;;;;;;;;5051852;28;20059;-77
2023/04/21 03:59:33;;;;;;;112.10;42.70;;;;;;;;;;5060941;28;20077;-76
2023/04/21 04:01:59;;;;;;;110.73;39.97;;;;;;;;;;5044847;28;20033;-77
2023/04/21 04:04:25;;;;;;;113.30;42.50;;;;;;;;;;5044417;28;20064;-77
2023/04/21 04:06:54;;;;;;;113.43;43.90;;;;;;;;;;5063228;28;20026;-77
2023/04/21 04:09:20;;;;;;;139.60;45.60;;;;;;;;;;5060385;28;20010;-76
2023/04/21 04:11:46;;;;;;;126.90;44.97;;;;;;;;;;5059913;28;20021;-78
2023/04/21 04:14:14;;;;;;;116.77;44.47;;;;;;;;;;5045667;28;20022;-77
2023/04/21 04:16:40;;;;;;;103.27;44.03;;;;;;;;;;5060213;28;20059;-77
2023/04/21 04:19:07;;;;;;;99.03;42.93;;;;;;;;;;5060415;28;20043;-77
2023/04/21 04:21:33;;;;;;;113.57;44.13;;;;;;;;;;5060087;28;20029;-79
2023/04/21 04:24:04;;;;;;;100.10;42.77;;;;;;;;;;5056712;28;20028;-76
2023/04/21 04:26:32;;;;;;;115.87;44.17;;;;;;;;;;5048202;28;20025;-77
2023/04/21 04:28:59;;;;;;;127.43;46.57;;;;;;;;;;5050477;28;20053;-77
2023/04/21 04:31:27;;;;;;;120.53;45.20;;;;;;;;;;5058577;28;20424;-77
2023/04/21 04:33:53;;;;;;;131.40;45.67;;;;;;;;;;5045846;28;20101;-78
2023/04/21 04:36:19;;;;;;;112.93;44.03;;;;;;;;;;5045726;28;20017;-77
2023/04/21 04:38:46;;;;;;;143.50;45.37;;;;;;;;;;5044203;28;20033;-78
2023/04/21 04:41:14;;;;;;;140.50;46.93;;;;;;;;;;5060285;28;20022;-77
2023/04/21 04:43:42;;;;;;;125.00;44.80;;;;;;;;;;5064059;28;20025;-77
2023/04/21 04:46:11;;;;;;;170.80;47.23;;;;;;;;;;5042273;28;20021;-78
2023/04/21 04:48:42;;;;;;;124.13;45.40;;;;;;;;;;5051324;28;20028;-76
2023/04/21 04:51:08;;;;;;;129.70;45.77;;;;;;;;;;5062596;28;20026;-77
2023/04/21 04:53:34;;;;;;;117.00;45.50;;;;;;;;;;5046281;28;20010;-76
2023/04/21 04:56:00;;;;;;;120.23;45.20;;;;;;;;;;5062217;28;20033;-76
2023/04/21 04:58:26;;;;;;;164.97;49.53;;;;;;;;;;5052715;28;20021;-77
2023/04/21 05:00:53;;;;;;;118.10;47.53;;;;;;;;;;5055984;28;20022;-77
2023/04/21 05:03:19;;;;;;;131.83;46.73;;;;;;;;;;5050157;28;20027;-77
2023/04/21 05:05:47;;;;;;;117.97;45.60;;;;;;;;;;5044213;28;20029;-76
2023/04/21 05:08:13;;;;;;;147.53;46.20;;;;;;;;;;5054365;28;20056;-77
2023/04/21 05:10:47;;;;;;;149.33;46.60;;;;;;;;;;5108959;23;20064;-78
2023/04/21 05:13:16;;;;;;;140.83;47.20;;;;;;;;;;5060429;28;20021;-77
2023/04/21 05:15:42;;;;;;;110.57;42.80;;;;;;;;;;5059756;28;20021;-77
2023/04/21 05:18:08;;;;;;;99.37;43.30;;;;;;;;;;5061030;28;20021;-77
2023/04/21 05:20:34;;;;;;;98.37;42.93;;;;;;;;;;5058604;28;20170;-76
2023/04/21 05:23:00;;;;;;;115.97;43.97;;;;;;;;;;5060554;28;20025;-77
2023/04/21 05:25:26;;;;;;;93.50;43.67;;;;;;;;;;5062194;28;20089;-76
2023/04/21 05:27:52;;;;;;;133.07;45.83;;;;;;;;;;5058559;28;20324;-78
2023/04/21 05:30:18;;;;;;;89.53;42.00;;;;;;;;;;5060917;28;20116;-76
2023/04/21 05:32:44;;;;;;;99.50;43.00;;;;;;;;;;5061384;28;20021;-77
2023/04/21 05:35:10;;;;;;;109.47;42.33;;;;;;;;;;5060193;28;20059;-77
2023/04/21 05:37:36;;;;;;;105.33;45.10;;;;;;;;;;5060516;28;20120;-77
2023/04/21 05:40:13;;;;;;;115.23;46.60;;;;;;;;;;5056270;28;20049;-76
2023/04/21 05:42:43;;;;;;;118.57;46.13;;;;;;;;;;5061029;28;20014;-76
2023/04/21 05:45:12;;;;;;;126.87;47.80;;;;;;;;;;5059707;28;20040;-76
2023/04/21 05:47:40;;;;;;;131.17;46.83;;;;;;;;;;5060101;28;20117;-76
2023/04/21 05:50:07;;;;;;;115.43;48.63;;;;;;;;;;5058178;28;20077;-76
2023/04/21 05:52:33;;;;;;;108.30;45.50;;;;;;;;;;5060240;28;20044;-76
2023/04/21 05:55:00;;;;;;;121.03;47.03;;;;;;;;;;5057642;28;20041;-77
2023/04/21 05:57:26;;;;;;;115.17;46.37;;;;;;;;;;5058584;28;20036;-76
2023/04/21 05:59:52;;;;;;;158.37;49.97;;;;;;;;;;5057820;28;20030;-77
2023/04/21 06:02:18;;;;;;;160.17;50.90;;;;;;;;;;5058477;28;20087;-82
2023/04/21 06:04:44;;;;;;;139.73;48.63;;;;;;;;;;5054738;28;20022;-76
2023/04/21 06:07:12;;;;;;;129.63;48.80;;;;;;;;;;5059392;28;20029;-78
2023/04/21 06:09:39;;;;;;;130.83;50.73;;;;;;;;;;5059086;28;20021;-76
2023/04/21 06:12:05;;;;;;;113.07;47.13;;;;;;;;;;5058309;28;20032;-76
2023/04/21 06:14:31;;;;;;;110.63;47.93;;;;;;;;;;5057139;28;20052;-76
2023/04/21 06:16:59;;;;;;;104.30;48.17;;;;;;;;;;5057255;28;20033;-76
2023/04/21 06:19:28;;;;;;;91.03;45.90;;;;;;;;;;5059149;28;20097;-77
2023/04/21 06:21:55;;;;;;;97.33;47.83;;;;;;;;;;5059419;28;20021;-76
2023/04/21 06:24:23;;;;;;;87.87;44.20;;;;;;;;;;5059945;28;20025;-77
2023/04/21 06:26:50;;;;;;;96.50;47.13;;;;;;;;;;5056904;28;20036;-78
2023/04/21 06:29:18;;;;;;;108.13;48.47;;;;;;;;;;5058658;28;20025;-78
2023/04/21 06:31:52;;;;;;;105.20;52.03;;;;;;;;;;5058119;28;20032;-77
2023/04/21 06:34:19;;;;;;;118.00;52.30;;;;;;;;;;5059188;28;20002;-77
2023/04/21 06:36:45;;;;;;;119.13;53.87;;;;;;;;;;5059622;28;20035;-77
2023/04/21 06:39:14;;;;;;;113.33;53.17;;;;;;;;;;5058730;28;20025;-76
2023/04/21 06:41:40;;;;;;;91.73;50.10;;;;;;;;;;5059720;28;20025;-77
2023/04/21 06:44:12;;;;;;;89.90;47.20;;;;;;;;;;5061229;28;20017;-77
2023/04/21 06:46:39;;;;;;;77.60;43.83;;;;;;;;;;5060610;28;20021;-75
2023/04/21 06:49:05;;;;;;;73.43;41.87;;;;;;;;;;5061263;28;20093;-76
2023/04/21 06:51:31;;;;;;;70.00;42.07;;;;;;;;;;5059846;28;20025;-77
2023/04/21 06:53:57;;;;;;;75.90;41.13;;;;;;;;;;5060146;28;20036;-77
2023/04/21 06:56:23;;;;;;;80.33;45.60;;;;;;;;;;5059827;28;20036;-77
2023/04/21 06:58:49;;;;;;;77.77;43.23;;;;;;;;;;5062188;28;20098;-77
2023/04/21 07:01:15;;;;;;;74.03;43.00;;;;;;;;;;5060203;28;20032;-76
2023/04/21 07:03:41;;;;;;;68.20;40.30;;;;;;;;;;5060752;28;20056;-76
2023/04/21 07:06:07;;;;;;;72.20;42.10;;;;;;;;;;5061225;28;20081;-77
2023/04/21 07:08:33;;;;;;;72.87;42.13;;;;;;;;;;5062702;28;20017;-77
2023/04/21 07:10:59;;;;;;;72.80;41.93;;;;;;;;;;5059861;28;20110;-77
2023/04/21 07:13:25;;;;;;;72.57;43.33;;;;;;;;;;5059934;28;20071;-77
2023/04/21 07:15:52;;;;;;;70.17;41.83;;;;;;;;;;5058628;28;20044;-77
2023/04/21 07:18:18;;;;;;;73.67;42.97;;;;;;;;;;5062087;28;20054;-76
2023/04/21 07:20:45;;;;;;;74.03;43.57;;;;;;;;;;5062319;28;20033;-77
2023/04/21 07:23:11;;;;;;;61.93;40.40;;;;;;;;;;5062801;28;20085;-77
2023/04/21 07:25:37;;;;;;;70.30;42.40;;;;;;;;;;5061833;28;20021;-76
2023/04/21 07:28:03;;;;;;;67.47;38.57;;;;;;;;;;5058733;28;20017;-76
2023/04/21 07:30:30;;;;;;;64.30;38.70;;;;;;;;;;5060796;28;20017;-76
2023/04/21 07:32:57;;;;;;;60.17;37.83;;;;;;;;;;5061859;28;20026;-76
2023/04/21 07:35:23;;;;;;;61.30;35.87;;;;;;;;;;5064536;28;20017;-77
2023/04/21 07:37:49;;;;;;;57.57;35.50;;;;;;;;;;5064938;28;20025;-76
2023/04/21 07:40:15;;;;;;;53.30;34.53;;;;;;;;;;5066497;28;20083;-76
2023/04/21 07:42:41;;;;;;;54.73;34.30;;;;;;;;;;5066017;28;20055;-76
2023/04/21 07:45:07;;;;;;;54.20;33.50;;;;;;;;;;5064632;28;20029;-77
2023/04/21 07:47:34;;;;;;;49.87;32.13;;;;;;;;;;5059720;28;20095;-77
2023/04/21 07:50:00;;;;;;;48.83;31.67;;;;;;;;;;5066319;28;20030;-77
2023/04/21 07:52:26;;;;;;;51.63;33.53;;;;;;;;;;5059264;28;20043;-77
2023/04/21 07:54:52;;;;;;;50.03;32.90;;;;;;;;;;5067952;28;20444;-76
2023/04/21 07:57:21;;;;;;;53.87;34.93;;;;;;;;;;5067689;28;20081;-76
2023/04/21 07:59:49;;;;;;;54.20;35.27;;;;;;;;;;5062530;28;20105;-77
2023/04/21 08:02:15;;;;;;;53.77;34.60;;;;;;;;;;5063513;28;20059;-77
2023/04/21 08:04:41;;;;;;;48.10;31.70;;;;;;;;;;5066678;28;20088;-77
2023/04/21 08:07:12;;;;;;;42.50;30.47;;;;;;;;;;5063572;28;20026;-76
2023/04/21 08:09:38;;;;;;;44.07;30.90;;;;;;;;;;5059764;28;20082;-78
2023/04/21 08:12:04;;;;;;;46.53;31.73;;;;;;;;;;5066333;28;20021;-77
2023/04/21 08:14:35;;;;;;;42.07;29.37;;;;;;;;;;5058943;28;20101;-77
2023/04/21 08:17:01;;;;;;;45.30;30.97;;;;;;;;;;5056704;28;20033;-77
2023/04/21 08:19:27;;;;;;;42.30;30.80;;;;;;;;;;5065243;28;20033;-77
2023/04/21 08:21:53;;;;;;;42.40;28.87;;;;;;;;;;5067880;28;20087;-78
2023/04/21 08:24:22;;;;;;;43.43;28.47;;;;;;;;;;5064330;28;20010;-77
2023/04/21 08:26:51;;;;;;;35.63;25.77;;;;;;;;;;5063484;28;20033;-77
2023/04/21 08:29:17;;;;;;;38.57;27.63;;;;;;;;;;5062031;28;20009;-77
2023/04/21 08:31:44;;;;;;;37.13;26.83;;;;;;;;;;5064497;28;20041;-77
2023/04/21 08:34:12;;;;;;;37.80;27.00;;;;;;;;;;5061261;28;20108;-77
2023/04/21 08:36:40;;;;;;;34.47;24.50;;;;;;;;;;5062764;28;20035;-76
2023/04/21 08:39:08;;;;;;;39.57;26.90;;;;;;;;;;5058675;28;20096;-77
2023/04/21 08:41:34;;;;;;;33.67;25.13;;;;;;;;;;5065677;28;20025;-77
2023/04/21 08:44:01;;;;;;;40.13;27.37;;;;;;;;;;5062345;28;20136;-77
2023/04/21 08:46:27;;;;;;;33.73;24.07;;;;;;;;;;5058042;28;20034;-77
2023/04/21 08:48:56;;;;;;;35.03;24.87;;;;;;;;;;5065336;28;20018;-76
2023/04/21 08:51:26;;;;;;;34.27;25.13;;;;;;;;;;5062401;28;20025;-77
2023/04/21 08:53:54;;;;;;;32.50;24.17;;;;;;;;;;5060787;28;20062;-77
2023/04/21 08:56:22;;;;;;;38.33;25.37;;;;;;;;;;5057100;28;20029;-76
2023/04/21 08:58:48;;;;;;;33.67;24.30;;;;;;;;;;5062345;28;20011;-78
2023/04/21 09:01:14;;;;;;;34.37;24.20;;;;;;;;;;5062354;28;20036;-77
2023/04/21 09:03:40;;;;;;;33.50;24.80;;;;;;;;;;5064534;28;20056;-76
2023/04/21 09:06:11;;;;;;;32.00;23.50;;;;;;;;;;5063734;28;20018;-77
2023/04/21 09:08:39;;;;;;;31.27;23.47;;;;;;;;;;5062588;28;20036;-77
2023/04/21 09:11:05;;;;;;;32.00;23.80;;;;;;;;;;5062935;28;20028;-77
2023/04/21 09:13:32;;;;;;;34.50;23.70;;;;;;;;;;5062391;28;20014;-77
2023/04/21 09:15:59;;;;;;;32.63;23.47;;;;;;;;;;5061546;28;20285;-77
2023/04/21 09:18:27;;;;;;;30.03;22.57;;;;;;;;;;5061106;28;20033;-77
2023/04/21 09:21:05;;;;;;;33.33;22.03;;;;;;;;;;5063295;28;20097;-78
2023/04/21 09:23:31;;;;;;;33.33;23.60;;;;;;;;;;5062656;28;20064;-77
2023/04/21 09:26:05;;;;;;;28.70;22.37;;;;;;;;;;5064649;28;20030;-77
2023/04/21 09:28:31;;;;;;;40.27;26.40;;;;;;;;;;5063649;28;20029;-77
2023/04/21 09:30:57;;;;;;;33.63;23.77;;;;;;;;;;5062634;28;20040;-77
2023/04/21 09:33:23;;;;;;;35.47;24.73;;;;;;;;;;5060264;28;20119;-78
2023/04/21 09:35:50;;;;;;;31.00;22.87;;;;;;;;;;5062613;28;20064;-77
2023/04/21 09:38:16;;;;;;;33.17;22.63;;;;;;;;;;5061474;28;20017;-78
2023/04/21 09:40:42;;;;;;;29.30;21.13;;;;;;;;;;5063731;28;20052;-77
2023/04/21 09:43:09;;;;;;;32.27;22.50;;;;;;;;;;5061019;28;20029;-78
2023/04/21 09:45:36;;;;;;;30.50;22.97;;;;;;;;;;5062539;28;20096;-80
2023/04/21 09:48:03;;;;;;;30.87;21.23;;;;;;;;;;5061602;28;20017;-78
2023/04/21 09:50:29;;;;;;;29.00;21.13;;;;;;;;;;5063206;28;20041;-76
2023/04/21 09:52:56;;;;;;;30.83;21.20;;;;;;;;;;5060361;28;20029;-77
2023/04/21 09:55:25;;;;;;;28.03;21.67;;;;;;;;;;5053805;28;20483;-76
2023/04/21 09:57:55;;;;;;;27.63;20.67;;;;;;;;;;5060185;28;20084;-77
2023/04/21 10:00:24;;;;;;;26.80;19.90;;;;;;;;;;5054520;28;20104;-79
2023/04/21 10:02:51;;;;;;;30.37;22.03;;;;;;;;;;5059131;28;20045;-76
2023/04/21 10:05:17;;;;;;;28.87;21.17;;;;;;;;;;5055244;28;20133;-78
2023/04/21 10:07:44;;;;;;;30.57;19.93;;;;;;;;;;5060478;28;20029;-77
2023/04/21 10:10:33;;;;;;;26.07;20.03;;;;;;;;;;5058607;28;20029;-79
2023/04/21 10:13:02;;;;;;;27.50;19.83;;;;;;;;;;5060093;28;20022;-81
2023/04/21 10:15:30;;;;;;;26.90;18.53;;;;;;;;;;5059893;28;20024;-78
2023/04/21 10:18:13;;;;;;;26.13;20.40;;;;;;;;;;5057693;28;20032;-77
2023/04/21 10:20:56;;;;;;;25.20;18.30;;;;;;;;;;5060669;28;20037;-79
2023/04/21 10:23:29;;;;;;;24.75;18.38;;;;;;;;;;5060457;28;20063;-79
2023/04/21 10:26:05;;;;;;;24.17;16.67;;;;;;;;;;5060603;28;20029;-77
2023/04/21 10:28:47;;;;;;;19.37;14.10;;;;;;;;;;5058660;28;20025;-77
2023/04/21 10:31:18;;;;;;;17.63;11.70;;;;;;;;;;5060127;28;20229;-78
2023/04/21 10:34:03;;;;;;;18.93;13.53;;;;;;;;;;5059246;28;20025;-77
2023/04/21 10:36:37;;;;;;;18.45;14.40;;;;;;;;;;5059084;28;20085;-77
2023/04/21 10:39:05;;;;;;;21.20;16.23;;;;;;;;;;5057962;28;20049;-77
2023/04/21 10:41:35;;;;;;;21.65;15.82;;;;;;;;;;5058235;28;20123;-77
2023/04/21 10:44:16;;;;;;;19.02;13.80;;;;;;;;;;5059558;28;20018;-77
2023/04/21 10:46:45;;;;;;;18.87;13.47;;;;;;;;;;5057380;28;20013;-78
2023/04/21 10:49:12;;;;;;;18.25;13.88;;;;;;;;;;5060446;28;20045;-77
2023/04/21 10:52:01;;;;;;;20.63;14.20;;;;;;;;;;5057741;28;20018;-77
2023/04/21 10:54:48;;;;;;;18.73;12.90;;;;;;;;;;5057132;28;20037;-77
2023/04/21 10:57:18;;;;;;;17.30;12.93;;;;;;;;;;5057710;28;20037;-77
2023/04/21 10:59:45;;;;;;;17.07;12.63;;;;;;;;;;5057297;28;20026;-77
2023/04/21 11:02:15;;;;;;;17.88;11.60;;;;;;;;;;5058443;28;20039;-77
2023/04/21 11:04:47;;;;;;;17.87;11.87;;;;;;;;;;5060667;28;20037;-78
2023/04/21 11:07:15;;;;;;;17.02;11.63;;;;;;;;;;5059731;28;20017;-78
2023/04/21 11:09:44;;;;;;;16.83;12.23;;;;;;;;;;5060476;28;20029;-78
2023/04/21 11:12:11;;;;;;;17.90;12.33;;;;;;;;;;5061703;28;20140;-77
2023/04/21 11:14:41;;;;;;;17.48;12.50;;;;;;;;;;5062571;28;20033;-78
2023/04/21 11:17:14;;;;;;;19.80;12.30;;;;;;;;;;5062160;28;20026;-77
2023/04/21 11:19:40;;;;;;;15.73;12.43;;;;;;;;;;5063343;28;20252;-77
2023/04/21 11:22:06;;;;;;;19.87;13.50;;;;;;;;;;5062343;28;20073;-77
2023/04/21 11:24:33;;;;;;;17.30;11.50;;;;;;;;;;5062139;28;20021;-77
2023/04/21 11:27:04;;;;;;;19.47;12.50;;;;;;;;;;5062043;28;20017;-77
2023/04/21 11:29:30;;;;;;;17.90;13.53;;;;;;;;;;5061711;28;20026;-77
2023/04/21 11:31:57;;;;;;;16.60;12.15;;;;;;;;;;5063671;28;20021;-79
2023/04/21 11:34:28;;;;;;;16.85;11.70;;;;;;;;;;5059974;28;20075;-78
2023/04/21 11:36:55;;;;;;;16.42;12.02;;;;;;;;;;5061063;28;20024;-77
2023/04/21 11:39:21;;;;;;;14.88;11.70;;;;;;;;;;5062844;28;20075;-77
2023/04/21 11:41:48;;;;;;;16.08;11.70;;;;;;;;;;5063357;28;20069;-77
2023/04/21 11:44:34;;;;;;;20.95;12.43;;;;;;;;;;5061159;28;20025;-77
2023/04/21 11:47:11;;;;;;;17.35;12.77;;;;;;;;;;5047985;28;20078;-76
2023/04/21 11:49:43;;;;;;;17.05;10.90;;;;;;;;;;5060786;28;20022;-77
2023/04/21 11:52:11;;;;;;;14.20;8.88;;;;;;;;;;5061716;28;20052;-78
2023/04/21 11:54:38;;;;;;;10.77;8.30;;;;;;;;;;5059763;28;20029;-78
2023/04/21 11:57:07;;;;;;;11.43;8.65;;;;;;;;;;5064117;28;20026;-78
2023/04/21 11:59:33;;;;;;;12.45;7.72;;;;;;;;;;5059479;28;20033;-77
2023/04/21 12:01:59;;;;;;;12.10;8.70;;;;;;;;;;5062638;28;20059;-78
2023/04/21 12:04:26;;;;;;;9.30;7.50;;;;;;;;;;5057805;28;20029;-78
2023/04/21 12:06:59;;;;;;;14.95;7.63;;;;;;;;;;5061518;28;20021;-80
2023/04/21 12:09:25;;;;;;;11.38;8.15;;;;;;;;;;5060418;28;20048;-81
2023/04/21 12:11:52;;;;;;;11.02;8.18;;;;;;;;;;5056191;28;20055;-79
2023/04/21 12:14:20;;;;;;;12.50;8.45;;;;;;;;;;5060265;28;20099;-78
2023/04/21 12:16:50;;;;;;;10.77;8.13;;;;;;;;;;5060868;28;20025;-77
2023/04/21 12:19:34;;;;;;;11.35;7.95;;;;;;;;;;5056375;28;20044;-78
2023/04/21 12:22:00;;;;;;;12.80;7.75;;;;;;;;;;5055400;28;20041;-77
2023/04/21 12:24:31;;;;;;;9.27;7.45;;;;;;;;;;5063519;28;20044;-78
2023/04/21 12:27:00;;;;;;;10.02;7.90;;;;;;;;;;5056315;28;20026;-77
2023/04/21 12:29:26;;;;;;;11.57;8.48;;;;;;;;;;5061563;28;20060;-78
2023/04/21 12:31:52;;;;;;;11.27;8.05;;;;;;;;;;5055081;28;20045;-77
2023/04/21 12:34:18;;;;;;;10.45;7.57;;;;;;;;;;5060481;28;20040;-79
2023/04/21 12:36:44;;;;;;;10.15;7.68;;;;;;;;;;5056167;28;20045;-78
2023/04/21 12:39:10;;;;;;;14.10;7.75;;;;;;;;;;5055346;28;20072;-78
2023/04/21 12:41:37;;;;;;;11.32;7.63;;;;;;;;;;5060039;28;20039;-77
2023/04/21 12:44:03;;;;;;;14.10;8.65;;;;;;;;;;5055457;28;20102;-78
2023/04/21 12:46:29;;;;;;;11.75;7.72;;;;;;;;;;5062666;28;20025;-77
2023/04/21 12:48:58;;;;;;;11.65;8.10;;;;;;;;;;5123691;23;20045;-77
2023/04/21 12:51:24;;;;;;;12.57;9.23;;;;;;;;;;5053575;28;20013;-76
2023/04/21 12:53:51;;;;;;;12.95;9.80;;;;;;;;;;5050426;28;20043;-79
2023/04/21 12:56:17;;;;;;;10.77;8.70;;;;;;;;;;5072838;28;20017;-77
2023/04/21 12:58:43;;;;;;;14.45;8.40;;;;;;;;;;5070604;28;20077;-77
2023/04/21 13:01:14;;;;;;;11.85;7.85;;;;;;;;;;5053152;28;20021;-81
2023/04/21 13:03:40;;;;;;;11.30;8.05;;;;;;;;;;5073160;28;20021;-77
2023/04/21 13:06:08;;;;;;;13.32;9.18;;;;;;;;;;5073114;28;20081;-77
2023/04/21 13:08:35;;;;;;;16.10;9.85;;;;;;;;;;5071444;28;20021;-79
2023/04/21 13:11:01;;;;;;;13.30;9.27;;;;;;;;;;5068693;28;20013;-77
2023/04/21 13:13:28;;;;;;;10.48;7.88;;;;;;;;;;5072268;28;20025;-78
2023/04/21 13:15:54;;;;;;;12.57;8.90;;;;;;;;;;5054256;28;20028;-77
2023/04/21 13:18:20;;;;;;;13.35;8.98;;;;;;;;;;5072882;28;20037;-77
2023/04/21 13:20:48;;;;;;;10.88;8.68;;;;;;;;;;5070684;28;20040;-79
2023/04/21 13:23:15;;;;;;;10.23;7.88;;;;;;;;;;5072609;28;20040;-77
2023/04/21 13:25:43;;;;;;;11.90;8.95;;;;;;;;;;5054943;28;20065;-78
2023/04/21 13:28:09;;;;;;;12.70;8.75;;;;;;;;;;5071621;28;20213;-77
2023/04/21 13:30:35;;;;;;;10.43;8.18;;;;;;;;;;5052233;28;20024;-78
2023/04/21 13:33:02;;;;;;;11.27;8.70;;;;;;;;;;5053728;28;20048;-78
2023/04/21 13:35:28;;;;;;;12.02;7.95;;;;;;;;;;5049282;28;20032;-77
2023/04/21 13:37:54;;;;;;;13.18;9.07;;;;;;;;;;5050784;28;20032;-77
2023/04/21 13:40:20;;;;;;;11.35;7.88;;;;;;;;;;5068984;28;20037;-77
2023/04/21 13:42:47;;;;;;;10.07;7.57;;;;;;;;;;5049280;28;20041;-78
2023/04/21 13:45:13;;;;;;;10.98;8.05;;;;;;;;;;5066680;28;20275;-79
2023/04/21 13:47:39;;;;;;;10.05;7.43;;;;;;;;;;5055373;28;20047;-80
2023/04/21 13:50:05;;;;;;;10.52;7.30;;;;;;;;;;5067046;28;20029;-78
2023/04/21 13:52:33;;;;;;;11.77;7.15;;;;;;;;;;5067520;28;20028;-78
2023/04/21 13:54:59;;;;;;;9.18;6.70;;;;;;;;;;5067347;28;20017;-79
2023/04/21 13:57:25;;;;;;;8.63;7.28;;;;;;;;;;5067096;28;20033;-77
2023/04/21 13:59:53;;;;;;;8.98;6.90;;;;;;;;;;5065787;28;20123;-80
2023/04/21 14:02:21;;;;;;;8.20;6.68;;;;;;;;;;5067453;28;20017;-79
2023/04/21 14:04:48;;;;;;;7.47;6.35;;;;;;;;;;5067323;28;20039;-79
2023/04/21 14:07:16;;;;;;;9.15;6.38;;;;;;;;;;5068085;28;20021;-81
2023/04/21 14:09:43;;;;;;;10.95;7.30;;;;;;;;;;5068312;28;20021;-82
2023/04/21 14:12:10;;;;;;;9.27;6.97;;;;;;;;;;5055821;28;20040;-77
2023/04/21 14:14:36;;;;;;;8.82;6.45;;;;;;;;;;5048696;28;20519;-81
2023/04/21 14:17:02;;;;;;;9.52;5.70;;;;;;;;;;5065516;28;20033;-78
2023/04/21 14:19:30;;;;;;;8.88;6.55;;;;;;;;;;5066078;28;20033;-79